번호 제목 글쓴이 날짜 조회 수
공지 스폰서쉽 관련 정책 공지 (19년 5월 20일자) 몬짐레이디 2019.05.21 2327
62861 단백질 섭취 질문 [5] temporary 2019.07.09 202
62860 식이요법 운동법질문 [5] rieneurhdlr 2019.07.09 140
62859 운동 가기 전 카페 [8] pogchamp 2019.07.09 210
62858 부종 [6] 배륵 2019.07.09 148
62857 보충체 섞어먹기에 오트밀 vs 미숫가루 뭐가 좋을까요? [11] 슈퍼멸치헬린이 2019.07.09 238
62856 다이어트시에 탄수화물 꾸준히 챙기시나요? [5] poiu3012 2019.07.09 371
62855 여름 닭가슴살 [14] 살말고근육 2019.07.09 206
62854 몬스터마트 얼라이브 종합비타민 [7] rawc5 2019.07.09 191
62853 간식으로 체중좀 올리려는데 뭐가좋을까요 [8] HHH 2019.07.09 240
62852 현재 복용중인 영양제입니다 지식인분들 한 번 봐주세요 [11] 13% 2019.07.09 199
62851 다이어트 정체기... [6] Buuuulk 2019.07.09 241
62850 단백질을 하루에 몇 g 먹어야 할까요? [11] temporary 2019.07.09 401
62849 감량중인데 시리얼먹어도될까요? [7] file 뜨또1 2019.07.09 247
62848 토마토 개수 [5] 제프송 2019.07.09 184
62847 7월 8일 월요일 영양일지(애슐리) [4] file makimakima 2019.07.08 163
62846 고수님들 다이어트 식단 확인부탁드려요! [9] 미래형몸짱 2019.07.08 200
62845 다이어트 복근 바디프로필... [5] 테드찬 2019.07.08 237
62844 벌크업에 고기는 필수? [9] 두부조림 2019.07.08 331
62843 오랜만에 다시 식단조절하려고 하는데요 [5] Mdew2 2019.07.08 144
62842 식물성 단백질 보충제 질문드립니다.. [5] 윤성민윤성민 2019.07.08 174

커뮤니티 답변 회원 랭킹 TOP 10

  • 1 Thor_ 658 pt
  • 2 김총경 642 pt
  • 3 아들이야너 536 pt
  • 4 151 491 pt
  • 5 Pizza 462 pt
  • 6 크나큰 327 pt
  • 7 makimakima 136 pt
  • 8 superhotdog 121 pt
  • 9 커팅러 105 pt
  • 10 헬스장갈렙 84 pt

MONSTERZYM

ABOUT US

FAMILY

BODYBUILDING SCHOOL